createdAt,value
2023-04-29T00:03:45.821Z,1.00
2023-04-29T00:09:39.287Z,1.00
2023-04-29T00:15:34.043Z,1.00
2023-04-29T00:21:27.550Z,1.00
2023-04-29T00:27:20.980Z,1.00
2023-04-29T00:33:15.812Z,1.00
2023-04-29T00:39:09.276Z,1.00
2023-04-29T00:45:02.848Z,1.00
2023-04-29T00:50:58.058Z,1.00
2023-04-29T00:56:52.747Z,1.00
2023-04-29T01:02:47.591Z,1.00
2023-04-29T01:08:50.180Z,1.00
2023-04-29T01:14:47.977Z,1.00
2023-04-29T01:20:42.265Z,1.00
2023-04-29T01:26:37.036Z,1.00
2023-04-29T01:32:53.024Z,1.00
2023-04-29T01:38:54.315Z,1.00
2023-04-29T01:44:52.344Z,1.00
2023-04-29T01:50:48.252Z,1.00
2023-04-29T01:56:43.380Z,1.00
2023-04-29T02:02:51.138Z,1.00
2023-04-29T02:08:59.494Z,1.00
2023-04-29T02:14:54.453Z,1.00
2023-04-29T02:20:51.132Z,1.00
2023-04-29T02:26:44.391Z,1.00
2023-04-29T02:32:39.491Z,1.00
2023-04-29T02:38:34.202Z,1.00
2023-04-29T02:44:27.425Z,1.00
2023-04-29T02:50:20.599Z,1.00
2023-04-29T02:56:15.373Z,1.00
2023-04-29T03:02:08.673Z,1.00
2023-04-29T03:08:02.130Z,1.00
2023-04-29T03:13:56.933Z,1.00
2023-04-29T03:19:51.619Z,1.00
2023-04-29T03:25:45.050Z,1.00
2023-04-29T03:31:40.209Z,1.00
2023-04-29T03:37:33.499Z,1.00
2023-04-29T03:43:44.237Z,1.00
2023-04-29T03:49:39.073Z,1.00
2023-04-29T03:55:32.909Z,1.00
2023-04-29T04:01:26.286Z,1.00
2023-04-29T04:07:21.023Z,1.00
2023-04-29T04:13:50.003Z,1.00
2023-04-29T04:19:44.047Z,1.00
2023-04-29T04:25:38.891Z,1.00
2023-04-29T04:31:50.414Z,1.00
2023-04-29T04:37:45.449Z,1.00
2023-04-29T04:43:41.105Z,1.00
2023-04-29T04:49:41.906Z,1.00
2023-04-29T04:55:35.185Z,1.00
2023-04-29T05:01:29.801Z,1.00
2023-04-29T05:07:24.983Z,1.00
2023-04-29T05:13:30.411Z,1.00
2023-04-29T05:19:25.089Z,1.00
2023-04-29T05:25:18.612Z,1.00
2023-04-29T05:31:11.911Z,1.00
2023-04-29T05:37:06.425Z,1.00
2023-04-29T05:43:07.942Z,1.00
2023-04-29T05:49:01.036Z,1.00
2023-04-29T05:54:55.709Z,1.00
2023-04-29T06:00:49.385Z,1.00
2023-04-29T06:06:47.780Z,1.00
2023-04-29T06:12:51.471Z,1.00
2023-04-29T06:18:44.552Z,1.00
2023-04-29T06:24:39.968Z,1.00
2023-04-29T06:30:36.503Z,1.00
2023-04-29T06:36:29.582Z,1.00
2023-04-29T06:42:41.104Z,1.00
2023-04-29T06:48:54.251Z,99.90
2023-04-29T06:54:47.821Z,99.90
2023-04-29T07:00:41.216Z,99.90
2023-04-29T07:06:35.634Z,99.90
2023-04-29T07:12:28.721Z,99.90
2023-04-29T07:18:21.735Z,99.90
2023-04-29T07:24:16.153Z,99.90
2023-04-29T07:30:12.544Z,99.90
2023-04-29T07:36:07.343Z,99.90
2023-04-29T07:42:03.082Z,99.90
2023-04-29T07:47:57.696Z,99.90
2023-04-29T07:53:51.178Z,99.90
2023-04-29T07:59:46.052Z,99.90
2023-04-29T08:05:39.696Z,99.90
2023-04-29T08:11:33.052Z,99.90
2023-04-29T08:17:27.853Z,99.90
2023-04-29T08:23:21.506Z,99.90
2023-04-29T08:29:15.030Z,99.90
2023-04-29T08:35:11.005Z,99.90
2023-04-29T08:41:04.519Z,99.90
2023-04-29T08:47:00.832Z,99.90
2023-04-29T08:52:56.160Z,99.90
2023-04-29T08:58:54.929Z,99.90
2023-04-29T09:04:54.436Z,99.90
2023-04-29T09:10:49.827Z,99.90
2023-04-29T09:16:43.336Z,99.90
2023-04-29T09:22:49.609Z,99.90
2023-04-29T09:28:45.671Z,99.90
2023-04-29T09:34:41.417Z,99.90
2023-04-29T09:40:46.582Z,99.90
2023-04-29T09:46:57.636Z,99.90
2023-04-29T09:52:51.420Z,99.90
2023-04-29T09:58:45.124Z,99.90
2023-04-29T10:04:42.290Z,99.90
2023-04-29T10:10:35.812Z,99.90
2023-04-29T10:16:30.795Z,99.90
2023-04-29T10:22:35.132Z,99.80
2023-04-29T10:28:32.565Z,92.60
2023-04-29T10:34:26.345Z,64.60
2023-04-29T10:40:26.170Z,57.40
2023-04-29T10:46:21.586Z,14.60
2023-04-29T10:52:18.163Z,7.40
2023-04-29T10:58:36.325Z,1.00
2023-04-29T11:04:32.663Z,1.00
2023-04-29T11:10:37.510Z,1.00
2023-04-29T11:16:32.557Z,1.00
2023-04-29T11:22:30.298Z,1.00
2023-04-29T11:28:25.038Z,1.00
2023-04-29T11:34:26.492Z,1.00
2023-04-29T11:40:19.439Z,1.00
2023-04-29T11:46:13.961Z,1.00
2023-04-29T11:52:09.819Z,1.00
2023-04-29T11:58:02.806Z,1.00
2023-04-29T12:04:00.998Z,1.00
2023-04-29T12:09:56.384Z,1.00
2023-04-29T12:15:51.155Z,1.00
2023-04-29T12:21:52.517Z,1.00
2023-04-29T12:27:46.923Z,1.00
2023-04-29T12:33:44.581Z,1.00
2023-04-29T12:39:38.051Z,1.00
2023-04-29T12:45:34.731Z,1.00
2023-04-29T12:51:28.097Z,1.00
2023-04-29T12:57:22.620Z,1.00
2023-04-29T13:03:19.182Z,1.00
2023-04-29T13:09:18.667Z,1.00
2023-04-29T13:15:12.510Z,1.00
2023-04-29T13:21:07.374Z,1.00
2023-04-29T13:27:00.786Z,1.00
2023-04-29T13:32:55.418Z,1.00
2023-04-29T13:38:55.381Z,1.00
2023-04-29T13:44:53.161Z,1.00
2023-04-29T13:57:30.108Z,1.00
2023-04-29T14:08:54.092Z,1.00
2023-04-29T14:14:48.897Z,1.00
2023-04-29T14:20:42.352Z,1.00
2023-04-29T14:26:36.698Z,1.00
2023-04-29T14:32:31.596Z,1.00
2023-04-29T14:38:25.048Z,1.00
2023-04-29T14:44:18.622Z,1.00
2023-04-29T14:50:13.553Z,1.00
2023-04-29T14:56:07.952Z,1.00
2023-04-29T15:02:00.986Z,1.00
2023-04-29T15:07:55.867Z,1.00
2023-04-29T15:13:49.044Z,1.00
2023-04-29T15:19:42.521Z,1.00
2023-04-29T15:25:38.669Z,1.00
2023-04-29T15:31:31.877Z,1.00
2023-04-29T15:37:25.350Z,1.00
2023-04-29T15:43:19.703Z,1.00
2023-04-29T15:49:13.740Z,1.00
2023-04-29T15:55:07.767Z,1.00
2023-04-29T16:01:02.179Z,1.00
2023-04-29T16:06:55.176Z,1.00
2023-04-29T16:12:48.705Z,1.00
2023-04-29T16:18:43.114Z,1.00
2023-04-29T16:24:36.513Z,1.00
2023-04-29T16:30:29.524Z,1.00
2023-04-29T16:36:24.354Z,1.00
2023-04-29T16:42:19.489Z,1.00
2023-04-29T16:48:12.525Z,1.00
2023-04-29T16:54:08.565Z,1.00
2023-04-29T17:00:02.068Z,1.00
2023-04-29T17:05:55.057Z,1.00
2023-04-29T17:11:50.198Z,1.00
2023-04-29T17:17:43.215Z,1.00
2023-04-29T17:23:37.521Z,1.00
2023-04-29T17:29:32.479Z,1.00
2023-04-29T17:35:25.877Z,1.00
2023-04-29T17:41:18.856Z,1.00
2023-04-29T17:47:13.762Z,1.00
2023-04-29T17:53:06.800Z,1.00
2023-04-29T17:58:59.849Z,1.00
2023-04-29T18:04:54.174Z,1.00
2023-04-29T18:10:47.149Z,1.00
2023-04-29T18:16:40.633Z,1.00
2023-04-29T18:22:35.635Z,1.00
2023-04-29T18:28:29.676Z,1.00
2023-04-29T18:34:22.656Z,1.00
2023-04-29T18:40:17.571Z,1.00
2023-04-29T18:46:10.664Z,1.00
2023-04-29T18:52:04.106Z,1.00
2023-04-29T18:57:58.930Z,1.00
2023-04-29T19:03:52.198Z,1.00
2023-04-29T19:09:45.646Z,1.00
2023-04-29T19:15:40.823Z,1.00
2023-04-29T19:21:34.254Z,1.00
2023-04-29T19:27:27.277Z,1.00
2023-04-29T19:33:22.046Z,1.00
2023-04-29T19:39:16.625Z,1.00
2023-04-29T19:45:12.408Z,1.00
2023-04-29T19:51:08.914Z,1.00
2023-04-29T19:57:02.888Z,1.00
2023-04-29T20:02:56.955Z,1.00
2023-04-29T20:08:52.481Z,1.00
2023-04-29T20:14:45.867Z,1.00
2023-04-29T20:20:39.317Z,1.00
2023-04-29T20:26:33.988Z,1.00
2023-04-29T20:32:27.094Z,1.00
2023-04-29T20:38:21.901Z,1.00
2023-04-29T20:44:17.368Z,1.00
2023-04-29T20:50:12.404Z,1.00
2023-04-29T20:56:06.189Z,1.00
2023-04-29T21:02:01.247Z,1.00
2023-04-29T21:07:54.264Z,1.00
2023-04-29T21:13:50.605Z,1.00
2023-04-29T21:19:45.337Z,1.00
2023-04-29T21:25:38.713Z,1.00
2023-04-29T21:31:32.280Z,1.00
2023-04-29T21:37:27.118Z,1.00
2023-04-29T21:43:20.818Z,1.00
2023-04-29T21:49:14.272Z,1.00
2023-04-29T21:55:09.450Z,1.00
2023-04-29T22:01:05.884Z,1.00
2023-04-29T22:07:00.474Z,1.00
2023-04-29T22:12:54.882Z,1.00
2023-04-29T22:18:48.651Z,1.00
2023-04-29T22:24:42.137Z,1.00
2023-04-29T22:30:37.011Z,1.00
2023-04-29T22:36:31.094Z,1.00
2023-04-29T22:42:24.168Z,1.00
2023-04-29T22:48:19.015Z,1.00
2023-04-29T22:55:20.244Z,1.00
2023-04-29T23:01:13.369Z,1.00
2023-04-29T23:07:06.725Z,1.00
2023-04-29T23:13:01.211Z,1.00
2023-04-29T23:18:54.611Z,1.00
2023-04-29T23:24:47.993Z,1.20
2023-04-29T23:30:42.500Z,4.00
2023-04-29T23:36:36.211Z,2.10
2023-04-29T23:44:21.518Z,4.90
2023-04-29T23:50:14.919Z,12.10
2023-04-29T23:56:08.784Z,12.50
